sensor_id;sensor_type;location;lat;lon;timestamp;temperature;humidity
57390;DHT22;43217;52.694;6.214;2023-05-23T00:00:37;15.70;99.90
57390;DHT22;43217;52.694;6.214;2023-05-23T00:03:02;15.60;99.90
57390;DHT22;43217;52.694;6.214;2023-05-23T00:05:28;15.50;99.90
57390;DHT22;43217;52.694;6.214;2023-05-23T00:07:54;15.50;99.90
57390;DHT22;43217;52.694;6.214;2023-05-23T00:10:20;15.50;99.90
57390;DHT22;43217;52.694;6.214;2023-05-23T00:12:46;15.40;99.90
57390;DHT22;43217;52.694;6.214;2023-05-23T00:15:13;15.40;99.90
57390;DHT22;43217;52.694;6.214;2023-05-23T00:17:38;15.40;99.90
57390;DHT22;43217;52.694;6.214;2023-05-23T00:20:05;15.40;99.90
57390;DHT22;43217;52.694;6.214;2023-05-23T00:22:34;15.30;99.90
57390;DHT22;43217;52.694;6.214;2023-05-23T00:25:01;15.30;99.90
57390;DHT22;43217;52.694;6.214;2023-05-23T00:27:28;15.20;99.90
57390;DHT22;43217;52.694;6.214;2023-05-23T00:29:54;15.20;99.90
57390;DHT22;43217;52.694;6.214;2023-05-23T00:32:19;15.10;99.90
57390;DHT22;43217;52.694;6.214;2023-05-23T00:34:45;15.10;99.90
57390;DHT22;43217;52.694;6.214;2023-05-23T00:37:11;15.10;99.90
57390;DHT22;43217;52.694;6.214;2023-05-23T00:39:36;15.10;99.90
57390;DHT22;43217;52.694;6.214;2023-05-23T00:42:03;15.10;99.90
57390;DHT22;43217;52.694;6.214;2023-05-23T00:44:29;15.00;99.90
57390;DHT22;43217;52.694;6.214;2023-05-23T00:46:56;15.10;99.90
57390;DHT22;43217;52.694;6.214;2023-05-23T00:49:23;15.00;99.90
57390;DHT22;43217;52.694;6.214;2023-05-23T00:51:50;15.00;99.90
57390;DHT22;43217;52.694;6.214;2023-05-23T00:54:36;15.00;99.90
57390;DHT22;43217;52.694;6.214;2023-05-23T00:57:02;15.00;99.90
57390;DHT22;43217;52.694;6.214;2023-05-23T00:59:28;14.90;99.90
57390;DHT22;43217;52.694;6.214;2023-05-23T01:01:55;15.00;99.90
57390;DHT22;43217;52.694;6.214;2023-05-23T01:04:21;15.00;99.90
57390;DHT22;43217;52.694;6.214;2023-05-23T01:06:54;14.90;99.90
57390;DHT22;43217;52.694;6.214;2023-05-23T01:09:21;14.90;99.90
57390;DHT22;43217;52.694;6.214;2023-05-23T01:12:02;14.80;99.90
57390;DHT22;43217;52.694;6.214;2023-05-23T01:14:48;14.90;99.90
57390;DHT22;43217;52.694;6.214;2023-05-23T01:17:32;14.80;99.90
57390;DHT22;43217;52.694;6.214;2023-05-23T01:20:08;14.70;99.90
57390;DHT22;43217;52.694;6.214;2023-05-23T01:28:46;14.70;99.90
57390;DHT22;43217;52.694;6.214;2023-05-23T01:31:14;14.70;99.90
57390;DHT22;43217;52.694;6.214;2023-05-23T01:33:40;14.70;99.90
57390;DHT22;43217;52.694;6.214;2023-05-23T01:36:07;14.70;99.90
57390;DHT22;43217;52.694;6.214;2023-05-23T01:38:33;14.70;99.90
57390;DHT22;43217;52.694;6.214;2023-05-23T01:40:59;14.70;99.90
57390;DHT22;43217;52.694;6.214;2023-05-23T01:43:25;14.80;99.90
57390;DHT22;43217;52.694;6.214;2023-05-23T01:45:52;14.70;99.90
57390;DHT22;43217;52.694;6.214;2023-05-23T01:48:19;14.80;99.90
57390;DHT22;43217;52.694;6.214;2023-05-23T01:50:45;14.70;99.90
57390;DHT22;43217;52.694;6.214;2023-05-23T01:53:13;14.70;99.90
57390;DHT22;43217;52.694;6.214;2023-05-23T01:55:40;14.70;99.90
57390;DHT22;43217;52.694;6.214;2023-05-23T01:58:06;14.60;99.90
57390;DHT22;43217;52.694;6.214;2023-05-23T02:00:32;14.60;99.90
57390;DHT22;43217;52.694;6.214;2023-05-23T02:02:58;14.60;99.90
57390;DHT22;43217;52.694;6.214;2023-05-23T02:05:24;14.60;99.90
57390;DHT22;43217;52.694;6.214;2023-05-23T02:07:50;14.60;99.90
57390;DHT22;43217;52.694;6.214;2023-05-23T02:10:15;14.60;99.90
57390;DHT22;43217;52.694;6.214;2023-05-23T02:12:41;14.50;99.90
57390;DHT22;43217;52.694;6.214;2023-05-23T02:15:07;14.50;99.90
57390;DHT22;43217;52.694;6.214;2023-05-23T02:17:33;14.50;99.90
57390;DHT22;43217;52.694;6.214;2023-05-23T02:19:59;14.50;99.90
57390;DHT22;43217;52.694;6.214;2023-05-23T02:22:24;14.50;99.90
57390;DHT22;43217;52.694;6.214;2023-05-23T02:24:50;14.40;99.90
57390;DHT22;43217;52.694;6.214;2023-05-23T02:27:17;14.40;99.90
57390;DHT22;43217;52.694;6.214;2023-05-23T02:29:43;14.40;99.90
57390;DHT22;43217;52.694;6.214;2023-05-23T02:32:09;14.50;99.90
57390;DHT22;43217;52.694;6.214;2023-05-23T02:34:35;14.40;99.90
57390;DHT22;43217;52.694;6.214;2023-05-23T02:37:00;14.40;99.90
57390;DHT22;43217;52.694;6.214;2023-05-23T02:39:26;14.40;99.90
57390;DHT22;43217;52.694;6.214;2023-05-23T02:41:52;14.40;99.90
57390;DHT22;43217;52.694;6.214;2023-05-23T02:44:17;14.40;99.90
57390;DHT22;43217;52.694;6.214;2023-05-23T02:46:44;14.30;99.90
57390;DHT22;43217;52.694;6.214;2023-05-23T02:49:10;14.30;99.90
57390;DHT22;43217;52.694;6.214;2023-05-23T02:51:36;14.30;99.90
57390;DHT22;43217;52.694;6.214;2023-05-23T02:54:01;14.30;99.90
57390;DHT22;43217;52.694;6.214;2023-05-23T02:56:27;14.30;99.90
57390;DHT22;43217;52.694;6.214;2023-05-23T02:58:52;14.30;99.90
57390;DHT22;43217;52.694;6.214;2023-05-23T03:01:18;14.30;99.90
57390;DHT22;43217;52.694;6.214;2023-05-23T03:03:44;14.30;99.90
57390;DHT22;43217;52.694;6.214;2023-05-23T03:06:10;14.20;99.90
57390;DHT22;43217;52.694;6.214;2023-05-23T03:08:40;14.20;99.90
57390;DHT22;43217;52.694;6.214;2023-05-23T03:11:06;14.30;99.90
57390;DHT22;43217;52.694;6.214;2023-05-23T03:13:33;14.20;99.90
57390;DHT22;43217;52.694;6.214;2023-05-23T03:15:59;14.20;99.90
57390;DHT22;43217;52.694;6.214;2023-05-23T03:18:24;14.20;99.90
57390;DHT22;43217;52.694;6.214;2023-05-23T03:20:50;14.20;99.90
57390;DHT22;43217;52.694;6.214;2023-05-23T03:23:15;14.20;99.90
57390;DHT22;43217;52.694;6.214;2023-05-23T03:25:42;14.20;99.90
57390;DHT22;43217;52.694;6.214;2023-05-23T03:28:08;14.20;99.90
57390;DHT22;43217;52.694;6.214;2023-05-23T03:30:33;14.20;99.90
57390;DHT22;43217;52.694;6.214;2023-05-23T03:32:59;14.20;99.90
57390;DHT22;43217;52.694;6.214;2023-05-23T03:35:26;14.20;99.90
57390;DHT22;43217;52.694;6.214;2023-05-23T03:37:51;14.20;99.90
57390;DHT22;43217;52.694;6.214;2023-05-23T03:40:17;14.10;99.90
57390;DHT22;43217;52.694;6.214;2023-05-23T03:42:43;14.10;99.90
57390;DHT22;43217;52.694;6.214;2023-05-23T03:45:08;14.10;99.90
57390;DHT22;43217;52.694;6.214;2023-05-23T03:47:34;14.10;99.90
57390;DHT22;43217;52.694;6.214;2023-05-23T03:50:00;14.10;99.90
57390;DHT22;43217;52.694;6.214;2023-05-23T03:52:25;14.10;99.90
57390;DHT22;43217;52.694;6.214;2023-05-23T03:54:51;14.00;99.90
57390;DHT22;43217;52.694;6.214;2023-05-23T03:57:16;14.00;99.90
57390;DHT22;43217;52.694;6.214;2023-05-23T03:59:42;14.00;99.90
57390;DHT22;43217;52.694;6.214;2023-05-23T04:02:08;14.00;99.90
57390;DHT22;43217;52.694;6.214;2023-05-23T04:04:34;13.90;99.90
57390;DHT22;43217;52.694;6.214;2023-05-23T04:07:00;13.90;99.90
57390;DHT22;43217;52.694;6.214;2023-05-23T04:09:27;13.80;99.90
57390;DHT22;43217;52.694;6.214;2023-05-23T04:11:52;13.80;99.90
57390;DHT22;43217;52.694;6.214;2023-05-23T04:14:18;13.70;99.90
57390;DHT22;43217;52.694;6.214;2023-05-23T04:16:46;13.60;99.90
57390;DHT22;43217;52.694;6.214;2023-05-23T04:19:12;13.70;99.90
57390;DHT22;43217;52.694;6.214;2023-05-23T04:21:38;13.70;99.90
57390;DHT22;43217;52.694;6.214;2023-05-23T04:24:04;13.70;99.90
57390;DHT22;43217;52.694;6.214;2023-05-23T04:26:30;13.60;99.90
57390;DHT22;43217;52.694;6.214;2023-05-23T04:28:55;13.60;99.90
57390;DHT22;43217;52.694;6.214;2023-05-23T04:31:21;13.60;99.90
57390;DHT22;43217;52.694;6.214;2023-05-23T04:33:47;13.60;99.90
57390;DHT22;43217;52.694;6.214;2023-05-23T04:36:13;13.60;99.90
57390;DHT22;43217;52.694;6.214;2023-05-23T04:38:39;13.60;99.90
57390;DHT22;43217;52.694;6.214;2023-05-23T04:41:06;13.50;99.90
57390;DHT22;43217;52.694;6.214;2023-05-23T04:43:34;13.50;99.90
57390;DHT22;43217;52.694;6.214;2023-05-23T04:46:02;13.50;99.90
57390;DHT22;43217;52.694;6.214;2023-05-23T04:48:28;13.50;99.90
57390;DHT22;43217;52.694;6.214;2023-05-23T04:50:53;13.40;99.90
57390;DHT22;43217;52.694;6.214;2023-05-23T04:53:21;13.40;99.90
57390;DHT22;43217;52.694;6.214;2023-05-23T04:55:47;13.40;99.90
57390;DHT22;43217;52.694;6.214;2023-05-23T04:58:12;13.40;99.90
57390;DHT22;43217;52.694;6.214;2023-05-23T05:00:38;13.40;99.90
57390;DHT22;43217;52.694;6.214;2023-05-23T05:03:04;13.30;99.90
57390;DHT22;43217;52.694;6.214;2023-05-23T05:05:29;13.30;99.90
57390;DHT22;43217;52.694;6.214;2023-05-23T05:07:55;13.40;99.90
57390;DHT22;43217;52.694;6.214;2023-05-23T05:10:21;13.40;99.90
57390;DHT22;43217;52.694;6.214;2023-05-23T05:12:47;13.40;99.90
57390;DHT22;43217;52.694;6.214;2023-05-23T05:15:16;13.30;99.90
57390;DHT22;43217;52.694;6.214;2023-05-23T05:17:42;13.40;99.90
57390;DHT22;43217;52.694;6.214;2023-05-23T05:20:08;13.40;99.90
57390;DHT22;43217;52.694;6.214;2023-05-23T05:22:38;13.30;99.90
57390;DHT22;43217;52.694;6.214;2023-05-23T05:25:09;13.30;99.90
57390;DHT22;43217;52.694;6.214;2023-05-23T05:27:35;13.30;99.90
57390;DHT22;43217;52.694;6.214;2023-05-23T05:30:07;13.20;99.90
57390;DHT22;43217;52.694;6.214;2023-05-23T05:32:33;13.20;99.90
57390;DHT22;43217;52.694;6.214;2023-05-23T05:35:03;13.30;99.90
57390;DHT22;43217;52.694;6.214;2023-05-23T05:37:28;13.30;99.90
57390;DHT22;43217;52.694;6.214;2023-05-23T05:39:55;13.30;99.90
57390;DHT22;43217;52.694;6.214;2023-05-23T05:42:21;13.20;99.90
57390;DHT22;43217;52.694;6.214;2023-05-23T05:44:48;13.20;99.90
57390;DHT22;43217;52.694;6.214;2023-05-23T05:47:14;13.20;99.90
57390;DHT22;43217;52.694;6.214;2023-05-23T05:49:41;13.10;99.90
57390;DHT22;43217;52.694;6.214;2023-05-23T05:52:07;13.10;99.90
57390;DHT22;43217;52.694;6.214;2023-05-23T05:54:33;13.10;99.90
57390;DHT22;43217;52.694;6.214;2023-05-23T05:56:59;13.10;99.90
57390;DHT22;43217;52.694;6.214;2023-05-23T05:59:24;13.10;99.90
57390;DHT22;43217;52.694;6.214;2023-05-23T06:01:51;13.10;99.90
57390;DHT22;43217;52.694;6.214;2023-05-23T06:04:16;13.00;99.90
57390;DHT22;43217;52.694;6.214;2023-05-23T06:06:42;12.90;99.90
57390;DHT22;43217;52.694;6.214;2023-05-23T06:09:08;12.80;99.90
57390;DHT22;43217;52.694;6.214;2023-05-23T06:11:33;12.80;99.90
57390;DHT22;43217;52.694;6.214;2023-05-23T06:14:02;12.90;99.90
57390;DHT22;43217;52.694;6.214;2023-05-23T06:16:28;12.80;99.90
57390;DHT22;43217;52.694;6.214;2023-05-23T06:18:53;12.80;99.90
57390;DHT22;43217;52.694;6.214;2023-05-23T06:21:19;12.70;99.90
57390;DHT22;43217;52.694;6.214;2023-05-23T06:23:44;12.80;99.90
57390;DHT22;43217;52.694;6.214;2023-05-23T06:26:10;12.80;99.90
57390;DHT22;43217;52.694;6.214;2023-05-23T06:28:39;12.80;99.90
57390;DHT22;43217;52.694;6.214;2023-05-23T06:31:04;12.90;99.90
57390;DHT22;43217;52.694;6.214;2023-05-23T06:33:31;12.90;99.90
57390;DHT22;43217;52.694;6.214;2023-05-23T06:35:57;13.00;99.90
57390;DHT22;43217;52.694;6.214;2023-05-23T06:38:22;13.10;99.90
57390;DHT22;43217;52.694;6.214;2023-05-23T06:40:48;13.10;99.90
57390;DHT22;43217;52.694;6.214;2023-05-23T06:43:13;13.20;99.90
57390;DHT22;43217;52.694;6.214;2023-05-23T06:45:39;13.20;99.90
57390;DHT22;43217;52.694;6.214;2023-05-23T06:48:05;13.30;99.90
57390;DHT22;43217;52.694;6.214;2023-05-23T06:50:30;13.30;99.90
57390;DHT22;43217;52.694;6.214;2023-05-23T06:52:56;13.30;99.90
57390;DHT22;43217;52.694;6.214;2023-05-23T06:55:22;13.30;99.90
57390;DHT22;43217;52.694;6.214;2023-05-23T06:57:48;13.30;99.90
57390;DHT22;43217;52.694;6.214;2023-05-23T07:00:17;13.30;99.90
57390;DHT22;43217;52.694;6.214;2023-05-23T07:02:43;13.20;99.90
57390;DHT22;43217;52.694;6.214;2023-05-23T07:05:13;13.20;99.90
57390;DHT22;43217;52.694;6.214;2023-05-23T07:07:40;13.10;99.90
57390;DHT22;43217;52.694;6.214;2023-05-23T07:10:06;13.10;99.90
57390;DHT22;43217;52.694;6.214;2023-05-23T07:12:31;13.00;99.90
57390;DHT22;43217;52.694;6.214;2023-05-23T07:14:57;13.00;99.90
57390;DHT22;43217;52.694;6.214;2023-05-23T07:17:23;13.10;99.90
57390;DHT22;43217;52.694;6.214;2023-05-23T07:19:49;13.30;99.90
57390;DHT22;43217;52.694;6.214;2023-05-23T07:22:14;13.60;99.90
57390;DHT22;43217;52.694;6.214;2023-05-23T07:24:40;13.90;99.90
57390;DHT22;43217;52.694;6.214;2023-05-23T07:27:06;14.20;99.90
57390;DHT22;43217;52.694;6.214;2023-05-23T07:29:31;14.30;99.90
57390;DHT22;43217;52.694;6.214;2023-05-23T07:31:57;14.40;99.90
57390;DHT22;43217;52.694;6.214;2023-05-23T07:34:23;14.30;99.90
57390;DHT22;43217;52.694;6.214;2023-05-23T07:36:51;14.30;99.90
57390;DHT22;43217;52.694;6.214;2023-05-23T07:39:16;14.30;99.90
57390;DHT22;43217;52.694;6.214;2023-05-23T07:41:46;14.20;99.90
57390;DHT22;43217;52.694;6.214;2023-05-23T07:44:12;14.20;99.90
57390;DHT22;43217;52.694;6.214;2023-05-23T07:46:38;14.20;99.90
57390;DHT22;43217;52.694;6.214;2023-05-23T07:49:03;14.20;99.90
57390;DHT22;43217;52.694;6.214;2023-05-23T07:51:29;14.30;99.90
57390;DHT22;43217;52.694;6.214;2023-05-23T07:53:55;14.40;99.90
57390;DHT22;43217;52.694;6.214;2023-05-23T07:56:20;14.40;99.90
57390;DHT22;43217;52.694;6.214;2023-05-23T07:58:47;14.30;99.90
57390;DHT22;43217;52.694;6.214;2023-05-23T08:01:13;14.20;99.90
57390;DHT22;43217;52.694;6.214;2023-05-23T08:03:39;14.00;99.90
57390;DHT22;43217;52.694;6.214;2023-05-23T08:06:04;14.10;99.90
57390;DHT22;43217;52.694;6.214;2023-05-23T08:08:32;14.70;99.90
57390;DHT22;43217;52.694;6.214;2023-05-23T08:10:57;15.40;99.90
57390;DHT22;43217;52.694;6.214;2023-05-23T08:13:23;15.60;99.90
57390;DHT22;43217;52.694;6.214;2023-05-23T08:15:49;15.50;99.90
57390;DHT22;43217;52.694;6.214;2023-05-23T08:18:14;15.50;99.90
57390;DHT22;43217;52.694;6.214;2023-05-23T08:20:41;15.40;99.90
57390;DHT22;43217;52.694;6.214;2023-05-23T08:23:06;15.40;99.90
57390;DHT22;43217;52.694;6.214;2023-05-23T08:25:32;15.50;99.90
57390;DHT22;43217;52.694;6.214;2023-05-23T08:27:58;15.50;99.90
57390;DHT22;43217;52.694;6.214;2023-05-23T08:30:26;15.60;99.90
57390;DHT22;43217;52.694;6.214;2023-05-23T08:32:53;15.80;99.90
57390;DHT22;43217;52.694;6.214;2023-05-23T08:35:20;16.00;99.90
57390;DHT22;43217;52.694;6.214;2023-05-23T08:37:46;16.10;99.90
57390;DHT22;43217;52.694;6.214;2023-05-23T08:40:21;16.10;99.90
57390;DHT22;43217;52.694;6.214;2023-05-23T08:42:50;16.30;99.90
57390;DHT22;43217;52.694;6.214;2023-05-23T08:45:16;16.80;99.90
57390;DHT22;43217;52.694;6.214;2023-05-23T08:47:43;17.10;99.90
57390;DHT22;43217;52.694;6.214;2023-05-23T08:50:13;17.20;99.90
57390;DHT22;43217;52.694;6.214;2023-05-23T08:52:49;17.30;99.90
57390;DHT22;43217;52.694;6.214;2023-05-23T08:55:17;17.50;99.90
57390;DHT22;43217;52.694;6.214;2023-05-23T08:57:43;17.70;99.90
57390;DHT22;43217;52.694;6.214;2023-05-23T09:00:11;18.00;99.90
57390;DHT22;43217;52.694;6.214;2023-05-23T09:02:44;18.40;99.90
57390;DHT22;43217;52.694;6.214;2023-05-23T09:05:13;18.60;97.40
57390;DHT22;43217;52.694;6.214;2023-05-23T09:07:39;18.60;96.00
57390;DHT22;43217;52.694;6.214;2023-05-23T09:10:07;19.00;95.60
57390;DHT22;43217;52.694;6.214;2023-05-23T09:12:34;19.20;94.50
57390;DHT22;43217;52.694;6.214;2023-05-23T09:15:04;19.50;93.80
57390;DHT22;43217;52.694;6.214;2023-05-23T09:17:31;19.90;92.90
57390;DHT22;43217;52.694;6.214;2023-05-23T09:19:58;20.10;92.10
57390;DHT22;43217;52.694;6.214;2023-05-23T09:22:25;19.90;90.90
57390;DHT22;43217;52.694;6.214;2023-05-23T09:24:52;19.30;90.40
57390;DHT22;43217;52.694;6.214;2023-05-23T09:27:18;19.00;89.60
57390;DHT22;43217;52.694;6.214;2023-05-23T09:29:44;18.70;88.90
57390;DHT22;43217;52.694;6.214;2023-05-23T09:32:13;18.90;87.80
57390;DHT22;43217;52.694;6.214;2023-05-23T09:34:39;18.90;84.40
57390;DHT22;43217;52.694;6.214;2023-05-23T09:37:05;19.00;85.50
57390;DHT22;43217;52.694;6.214;2023-05-23T09:39:31;19.10;86.60
57390;DHT22;43217;52.694;6.214;2023-05-23T09:42:01;19.20;86.00
57390;DHT22;43217;52.694;6.214;2023-05-23T09:44:26;19.10;85.30
57390;DHT22;43217;52.694;6.214;2023-05-23T09:46:52;18.90;84.70
57390;DHT22;43217;52.694;6.214;2023-05-23T09:49:18;18.60;84.70
57390;DHT22;43217;52.694;6.214;2023-05-23T09:51:56;18.30;84.80
57390;DHT22;43217;52.694;6.214;2023-05-23T09:54:21;18.10;85.70
57390;DHT22;43217;52.694;6.214;2023-05-23T09:56:47;18.10;85.60
57390;DHT22;43217;52.694;6.214;2023-05-23T09:59:15;18.30;84.80
57390;DHT22;43217;52.694;6.214;2023-05-23T10:01:46;18.40;83.50
57390;DHT22;43217;52.694;6.214;2023-05-23T10:04:13;18.60;84.60
57390;DHT22;43217;52.694;6.214;2023-05-23T10:06:46;18.70;83.80
57390;DHT22;43217;52.694;6.214;2023-05-23T10:09:16;18.60;83.70
57390;DHT22;43217;52.694;6.214;2023-05-23T10:14:18;18.80;82.20
57390;DHT22;43217;52.694;6.214;2023-05-23T10:17:02;18.70;82.00
57390;DHT22;43217;52.694;6.214;2023-05-23T10:19:42;18.80;83.80
57390;DHT22;43217;52.694;6.214;2023-05-23T10:22:09;18.90;81.60
57390;DHT22;43217;52.694;6.214;2023-05-23T10:24:37;18.80;82.70
57390;DHT22;43217;52.694;6.214;2023-05-23T10:27:03;18.80;83.70
57390;DHT22;43217;52.694;6.214;2023-05-23T10:29:30;18.90;80.10
57390;DHT22;43217;52.694;6.214;2023-05-23T10:31:56;19.00;79.30
57390;DHT22;43217;52.694;6.214;2023-05-23T10:37:05;18.80;78.60
57390;DHT22;43217;52.694;6.214;2023-05-23T10:42:18;18.50;82.60
57390;DHT22;43217;52.694;6.214;2023-05-23T10:44:46;18.40;82.90
57390;DHT22;43217;52.694;6.214;2023-05-23T10:47:24;18.20;82.00
57390;DHT22;43217;52.694;6.214;2023-05-23T10:49:54;18.10;83.50
57390;DHT22;43217;52.694;6.214;2023-05-23T10:52:23;18.30;83.60
57390;DHT22;43217;52.694;6.214;2023-05-23T10:54:52;18.30;82.70
57390;DHT22;43217;52.694;6.214;2023-05-23T10:57:20;18.30;82.90
57390;DHT22;43217;52.694;6.214;2023-05-23T10:59:49;18.30;83.20
57390;DHT22;43217;52.694;6.214;2023-05-23T11:02:17;18.40;81.10
57390;DHT22;43217;52.694;6.214;2023-05-23T11:04:43;18.30;80.90
57390;DHT22;43217;52.694;6.214;2023-05-23T11:07:29;18.20;82.50
57390;DHT22;43217;52.694;6.214;2023-05-23T11:10:11;18.30;79.60
57390;DHT22;43217;52.694;6.214;2023-05-23T11:12:40;18.30;79.80
57390;DHT22;43217;52.694;6.214;2023-05-23T11:15:42;18.20;78.40
57390;DHT22;43217;52.694;6.214;2023-05-23T11:18:09;18.20;78.90
57390;DHT22;43217;52.694;6.214;2023-05-23T11:20:36;18.10;79.80
57390;DHT22;43217;52.694;6.214;2023-05-23T11:23:06;17.90;81.40
57390;DHT22;43217;52.694;6.214;2023-05-23T11:28:12;18.10;83.10
57390;DHT22;43217;52.694;6.214;2023-05-23T11:30:38;18.40;81.90
57390;DHT22;43217;52.694;6.214;2023-05-23T11:33:12;18.40;80.70
57390;DHT22;43217;52.694;6.214;2023-05-23T11:35:45;18.30;78.50
57390;DHT22;43217;52.694;6.214;2023-05-23T11:38:13;18.20;80.20
57390;DHT22;43217;52.694;6.214;2023-05-23T11:40:41;18.40;79.90
57390;DHT22;43217;52.694;6.214;2023-05-23T11:43:09;18.40;80.80
57390;DHT22;43217;52.694;6.214;2023-05-23T11:45:37;18.40;82.70
57390;DHT22;43217;52.694;6.214;2023-05-23T11:50:32;18.30;85.00
57390;DHT22;43217;52.694;6.214;2023-05-23T11:52:58;18.40;84.90
57390;DHT22;43217;52.694;6.214;2023-05-23T11:55:24;18.40;84.50
57390;DHT22;43217;52.694;6.214;2023-05-23T11:57:50;18.70;83.10
57390;DHT22;43217;52.694;6.214;2023-05-23T12:00:17;18.90;79.30
57390;DHT22;43217;52.694;6.214;2023-05-23T12:02:44;18.90;77.90
57390;DHT22;43217;52.694;6.214;2023-05-23T12:05:13;18.70;77.70
57390;DHT22;43217;52.694;6.214;2023-05-23T12:07:43;18.60;77.50
57390;DHT22;43217;52.694;6.214;2023-05-23T12:10:10;18.60;78.50
57390;DHT22;43217;52.694;6.214;2023-05-23T12:12:36;18.60;78.60
57390;DHT22;43217;52.694;6.214;2023-05-23T12:15:02;18.60;77.70
57390;DHT22;43217;52.694;6.214;2023-05-23T12:17:28;18.40;76.20
57390;DHT22;43217;52.694;6.214;2023-05-23T12:19:54;18.20;76.50
57390;DHT22;43217;52.694;6.214;2023-05-23T12:22:23;18.20;76.60
57390;DHT22;43217;52.694;6.214;2023-05-23T12:24:52;18.20;79.20
57390;DHT22;43217;52.694;6.214;2023-05-23T12:27:25;18.30;78.90
57390;DHT22;43217;52.694;6.214;2023-05-23T12:29:54;18.30;79.70
57390;DHT22;43217;52.694;6.214;2023-05-23T12:32:28;18.30;79.30
57390;DHT22;43217;52.694;6.214;2023-05-23T12:34:54;18.30;78.50
57390;DHT22;43217;52.694;6.214;2023-05-23T12:37:20;18.20;77.70
57390;DHT22;43217;52.694;6.214;2023-05-23T12:39:46;18.00;77.50
57390;DHT22;43217;52.694;6.214;2023-05-23T12:42:12;17.90;76.90
57390;DHT22;43217;52.694;6.214;2023-05-23T12:44:40;17.80;76.10
57390;DHT22;43217;52.694;6.214;2023-05-23T12:47:05;17.70;75.30
57390;DHT22;43217;52.694;6.214;2023-05-23T12:49:34;17.70;76.20
57390;DHT22;43217;52.694;6.214;2023-05-23T12:52:00;17.90;77.10
57390;DHT22;43217;52.694;6.214;2023-05-23T12:54:25;18.00;76.50
57390;DHT22;43217;52.694;6.214;2023-05-23T12:56:51;17.90;76.20
57390;DHT22;43217;52.694;6.214;2023-05-23T12:59:16;17.80;75.80
57390;DHT22;43217;52.694;6.214;2023-05-23T13:01:42;17.90;76.00
57390;DHT22;43217;52.694;6.214;2023-05-23T13:04:08;17.90;76.10
57390;DHT22;43217;52.694;6.214;2023-05-23T13:06:33;17.90;76.10
57390;DHT22;43217;52.694;6.214;2023-05-23T13:08:59;17.60;75.00
57390;DHT22;43217;52.694;6.214;2023-05-23T13:11:25;17.40;75.60
57390;DHT22;43217;52.694;6.214;2023-05-23T13:13:51;17.30;75.70
57390;DHT22;43217;52.694;6.214;2023-05-23T13:16:17;17.40;76.20
57390;DHT22;43217;52.694;6.214;2023-05-23T13:18:43;17.50;75.60
57390;DHT22;43217;52.694;6.214;2023-05-23T13:21:09;17.60;73.80
57390;DHT22;43217;52.694;6.214;2023-05-23T13:23:37;17.50;74.40
57390;DHT22;43217;52.694;6.214;2023-05-23T13:26:03;17.60;75.70
57390;DHT22;43217;52.694;6.214;2023-05-23T13:28:29;17.70;76.00
57390;DHT22;43217;52.694;6.214;2023-05-23T13:30:55;17.80;76.80
57390;DHT22;43217;52.694;6.214;2023-05-23T13:33:20;17.90;77.90
57390;DHT22;43217;52.694;6.214;2023-05-23T13:35:49;18.00;75.00
57390;DHT22;43217;52.694;6.214;2023-05-23T13:38:18;18.00;75.40
57390;DHT22;43217;52.694;6.214;2023-05-23T13:40:44;17.90;76.00
57390;DHT22;43217;52.694;6.214;2023-05-23T13:43:10;17.80;76.80
57390;DHT22;43217;52.694;6.214;2023-05-23T13:45:35;17.50;77.30
57390;DHT22;43217;52.694;6.214;2023-05-23T13:48:01;17.40;78.00
57390;DHT22;43217;52.694;6.214;2023-05-23T13:50:27;17.30;78.10
57390;DHT22;43217;52.694;6.214;2023-05-23T13:52:52;17.30;78.40
57390;DHT22;43217;52.694;6.214;2023-05-23T13:55:18;17.50;76.70
57390;DHT22;43217;52.694;6.214;2023-05-23T13:57:44;17.50;75.30
57390;DHT22;43217;52.694;6.214;2023-05-23T14:00:10;17.60;76.30
57390;DHT22;43217;52.694;6.214;2023-05-23T14:02:36;17.80;75.00
57390;DHT22;43217;52.694;6.214;2023-05-23T14:05:02;17.90;72.80
57390;DHT22;43217;52.694;6.214;2023-05-23T14:07:28;18.00;73.00
57390;DHT22;43217;52.694;6.214;2023-05-23T14:09:54;17.90;72.90
57390;DHT22;43217;52.694;6.214;2023-05-23T14:12:19;17.90;71.10
57390;DHT22;43217;52.694;6.214;2023-05-23T14:14:45;17.90;72.10
57390;DHT22;43217;52.694;6.214;2023-05-23T14:17:14;17.90;72.70
57390;DHT22;43217;52.694;6.214;2023-05-23T14:19:41;17.90;71.90
57390;DHT22;43217;52.694;6.214;2023-05-23T14:22:06;17.80;71.10
57390;DHT22;43217;52.694;6.214;2023-05-23T14:24:32;17.80;71.50
57390;DHT22;43217;52.694;6.214;2023-05-23T14:26:58;17.80;71.30
57390;DHT22;43217;52.694;6.214;2023-05-23T14:29:23;17.80;71.10
57390;DHT22;43217;52.694;6.214;2023-05-23T14:31:49;17.70;70.20
57390;DHT22;43217;52.694;6.214;2023-05-23T14:34:14;17.70;70.10
57390;DHT22;43217;52.694;6.214;2023-05-23T14:36:40;17.70;69.70
57390;DHT22;43217;52.694;6.214;2023-05-23T14:39:06;17.80;69.20
57390;DHT22;43217;52.694;6.214;2023-05-23T14:41:32;17.70;69.50
57390;DHT22;43217;52.694;6.214;2023-05-23T14:43:57;17.70;70.80
57390;DHT22;43217;52.694;6.214;2023-05-23T14:46:23;17.70;71.60
57390;DHT22;43217;52.694;6.214;2023-05-23T14:48:49;17.80;71.90
57390;DHT22;43217;52.694;6.214;2023-05-23T14:51:14;17.90;69.60
57390;DHT22;43217;52.694;6.214;2023-05-23T14:53:40;17.80;70.40
57390;DHT22;43217;52.694;6.214;2023-05-23T14:56:06;17.90;71.60
57390;DHT22;43217;52.694;6.214;2023-05-23T14:58:31;18.00;71.00
57390;DHT22;43217;52.694;6.214;2023-05-23T15:00:57;18.20;70.80
57390;DHT22;43217;52.694;6.214;2023-05-23T15:03:22;18.30;70.30
57390;DHT22;43217;52.694;6.214;2023-05-23T15:05:48;18.40;69.10
57390;DHT22;43217;52.694;6.214;2023-05-23T15:08:14;18.30;67.40
57390;DHT22;43217;52.694;6.214;2023-05-23T15:10:40;18.10;67.40
57390;DHT22;43217;52.694;6.214;2023-05-23T15:13:09;18.10;67.90
57390;DHT22;43217;52.694;6.214;2023-05-23T15:15:34;18.00;67.50
57390;DHT22;43217;52.694;6.214;2023-05-23T15:18:05;17.90;66.90
57390;DHT22;43217;52.694;6.214;2023-05-23T15:20:34;17.90;68.00
57390;DHT22;43217;52.694;6.214;2023-05-23T15:23:00;17.90;67.70
57390;DHT22;43217;52.694;6.214;2023-05-23T15:25:26;17.80;68.30
57390;DHT22;43217;52.694;6.214;2023-05-23T15:27:52;17.90;70.10
57390;DHT22;43217;52.694;6.214;2023-05-23T15:30:18;17.90;70.10
57390;DHT22;43217;52.694;6.214;2023-05-23T15:32:44;17.80;70.60
57390;DHT22;43217;52.694;6.214;2023-05-23T15:35:09;17.80;69.90
57390;DHT22;43217;52.694;6.214;2023-05-23T15:37:35;17.60;70.10
57390;DHT22;43217;52.694;6.214;2023-05-23T15:40:01;17.60;69.90
57390;DHT22;43217;52.694;6.214;2023-05-23T15:42:27;17.70;69.80
57390;DHT22;43217;52.694;6.214;2023-05-23T15:44:52;17.70;69.50
57390;DHT22;43217;52.694;6.214;2023-05-23T15:47:18;17.70;68.00